sensor_id;sensor_type;location;lat;lon;timestamp;P1;durP1;ratioP1;P2;durP2;ratioP2
3379;SDS011;1703;51.964;7.642;2023-07-24T00:00:43;8.57;;;6.30;;
3379;SDS011;1703;51.964;7.642;2023-07-24T00:03:10;8.00;;;6.77;;
3379;SDS011;1703;51.964;7.642;2023-07-24T00:05:38;6.83;;;5.83;;
3379;SDS011;1703;51.964;7.642;2023-07-24T00:08:05;7.83;;;6.63;;
3379;SDS011;1703;51.964;7.642;2023-07-24T00:10:32;6.67;;;6.17;;
3379;SDS011;1703;51.964;7.642;2023-07-24T00:12:59;7.37;;;6.63;;
3379;SDS011;1703;51.964;7.642;2023-07-24T00:15:26;7.53;;;6.47;;
3379;SDS011;1703;51.964;7.642;2023-07-24T00:17:53;5.97;;;5.40;;
3379;SDS011;1703;51.964;7.642;2023-07-24T00:20:19;7.83;;;6.63;;
3379;SDS011;1703;51.964;7.642;2023-07-24T00:22:48;9.73;;;6.73;;
3379;SDS011;1703;51.964;7.642;2023-07-24T00:25:14;9.60;;;6.27;;
3379;SDS011;1703;51.964;7.642;2023-07-24T00:27:41;9.23;;;6.30;;
3379;SDS011;1703;51.964;7.642;2023-07-24T00:30:08;6.77;;;5.97;;
3379;SDS011;1703;51.964;7.642;2023-07-24T00:32:36;6.97;;;6.33;;
3379;SDS011;1703;51.964;7.642;2023-07-24T00:35:03;7.20;;;6.60;;
3379;SDS011;1703;51.964;7.642;2023-07-24T00:37:30;8.00;;;6.47;;
3379;SDS011;1703;51.964;7.642;2023-07-24T00:39:59;6.40;;;5.80;;
3379;SDS011;1703;51.964;7.642;2023-07-24T00:42:25;7.50;;;6.80;;
3379;SDS011;1703;51.964;7.642;2023-07-24T00:44:52;8.03;;;6.70;;
3379;SDS011;1703;51.964;7.642;2023-07-24T00:47:19;8.00;;;6.77;;
3379;SDS011;1703;51.964;7.642;2023-07-24T00:49:46;8.37;;;6.87;;
3379;SDS011;1703;51.964;7.642;2023-07-24T00:52:13;8.40;;;7.13;;
3379;SDS011;1703;51.964;7.642;2023-07-24T00:54:41;7.90;;;4.60;;
3379;SDS011;1703;51.964;7.642;2023-07-24T00:57:13;7.57;;;5.87;;
3379;SDS011;1703;51.964;7.642;2023-07-24T00:59:41;5.97;;;5.20;;
3379;SDS011;1703;51.964;7.642;2023-07-24T01:02:08;7.17;;;6.47;;
3379;SDS011;1703;51.964;7.642;2023-07-24T01:04:38;5.83;;;5.10;;
3379;SDS011;1703;51.964;7.642;2023-07-24T01:07:05;4.30;;;3.47;;
3379;SDS011;1703;51.964;7.642;2023-07-24T01:09:33;5.30;;;4.60;;
3379;SDS011;1703;51.964;7.642;2023-07-24T01:12:01;7.30;;;4.40;;
3379;SDS011;1703;51.964;7.642;2023-07-24T01:14:35;6.43;;;4.80;;
3379;SDS011;1703;51.964;7.642;2023-07-24T01:20:34;5.03;;;4.00;;
3379;SDS011;1703;51.964;7.642;2023-07-24T01:23:13;4.80;;;3.83;;
3379;SDS011;1703;51.964;7.642;2023-07-24T01:25:57;6.67;;;4.30;;
3379;SDS011;1703;51.964;7.642;2023-07-24T01:28:24;4.10;;;3.80;;
3379;SDS011;1703;51.964;7.642;2023-07-24T01:30:52;6.27;;;4.50;;
3379;SDS011;1703;51.964;7.642;2023-07-24T01:33:19;6.20;;;4.97;;
3379;SDS011;1703;51.964;7.642;2023-07-24T01:35:47;5.10;;;4.07;;
3379;SDS011;1703;51.964;7.642;2023-07-24T01:38:16;3.93;;;3.40;;
3379;SDS011;1703;51.964;7.642;2023-07-24T01:40:44;7.17;;;4.40;;
3379;SDS011;1703;51.964;7.642;2023-07-24T01:43:12;8.53;;;5.10;;
3379;SDS011;1703;51.964;7.642;2023-07-24T01:45:39;7.13;;;4.70;;
3379;SDS011;1703;51.964;7.642;2023-07-24T01:48:06;7.70;;;5.00;;
3379;SDS011;1703;51.964;7.642;2023-07-24T01:50:33;6.07;;;4.90;;
3379;SDS011;1703;51.964;7.642;2023-07-24T01:53:00;5.30;;;4.27;;
3379;SDS011;1703;51.964;7.642;2023-07-24T01:55:27;10.17;;;4.63;;
3379;SDS011;1703;51.964;7.642;2023-07-24T01:57:53;9.30;;;4.13;;
3379;SDS011;1703;51.964;7.642;2023-07-24T02:00:22;7.50;;;4.47;;
3379;SDS011;1703;51.964;7.642;2023-07-24T02:02:56;8.33;;;4.60;;
3379;SDS011;1703;51.964;7.642;2023-07-24T02:05:23;5.00;;;4.47;;
3379;SDS011;1703;51.964;7.642;2023-07-24T02:07:49;5.67;;;4.77;;
3379;SDS011;1703;51.964;7.642;2023-07-24T02:10:16;5.07;;;4.30;;
3379;SDS011;1703;51.964;7.642;2023-07-24T02:12:43;4.77;;;3.53;;
3379;SDS011;1703;51.964;7.642;2023-07-24T02:15:10;5.27;;;3.87;;
3379;SDS011;1703;51.964;7.642;2023-07-24T02:17:40;7.50;;;4.53;;
3379;SDS011;1703;51.964;7.642;2023-07-24T02:20:07;6.90;;;3.90;;
3379;SDS011;1703;51.964;7.642;2023-07-24T02:22:34;6.60;;;4.50;;
3379;SDS011;1703;51.964;7.642;2023-07-24T02:25:05;6.10;;;4.00;;
3379;SDS011;1703;51.964;7.642;2023-07-24T02:27:32;5.83;;;4.97;;
3379;SDS011;1703;51.964;7.642;2023-07-24T02:29:59;5.27;;;4.67;;
3379;SDS011;1703;51.964;7.642;2023-07-24T02:32:26;9.53;;;3.87;;
3379;SDS011;1703;51.964;7.642;2023-07-24T02:34:55;8.57;;;3.73;;
3379;SDS011;1703;51.964;7.642;2023-07-24T02:37:21;8.20;;;3.97;;
3379;SDS011;1703;51.964;7.642;2023-07-24T02:39:48;14.20;;;4.07;;
3379;SDS011;1703;51.964;7.642;2023-07-24T02:42:15;4.20;;;3.63;;
3379;SDS011;1703;51.964;7.642;2023-07-24T02:44:43;4.20;;;3.63;;
3379;SDS011;1703;51.964;7.642;2023-07-24T02:47:10;7.57;;;5.37;;
3379;SDS011;1703;51.964;7.642;2023-07-24T02:49:37;7.20;;;4.60;;
3379;SDS011;1703;51.964;7.642;2023-07-24T02:52:06;5.73;;;3.60;;
3379;SDS011;1703;51.964;7.642;2023-07-24T02:54:33;4.97;;;4.30;;
3379;SDS011;1703;51.964;7.642;2023-07-24T02:57:00;6.63;;;4.50;;
3379;SDS011;1703;51.964;7.642;2023-07-24T02:59:27;13.80;;;5.53;;
3379;SDS011;1703;51.964;7.642;2023-07-24T03:01:56;10.77;;;5.60;;
3379;SDS011;1703;51.964;7.642;2023-07-24T03:04:23;5.43;;;4.20;;
3379;SDS011;1703;51.964;7.642;2023-07-24T03:06:50;7.67;;;4.83;;
3379;SDS011;1703;51.964;7.642;2023-07-24T03:09:18;4.50;;;4.10;;
3379;SDS011;1703;51.964;7.642;2023-07-24T03:11:45;4.90;;;4.17;;
3379;SDS011;1703;51.964;7.642;2023-07-24T03:14:12;6.97;;;4.63;;
3379;SDS011;1703;51.964;7.642;2023-07-24T03:16:39;7.43;;;4.53;;
3379;SDS011;1703;51.964;7.642;2023-07-24T03:19:05;10.37;;;4.67;;
3379;SDS011;1703;51.964;7.642;2023-07-24T03:21:32;6.80;;;4.60;;
3379;SDS011;1703;51.964;7.642;2023-07-24T03:23:59;4.53;;;4.13;;
3379;SDS011;1703;51.964;7.642;2023-07-24T03:26:27;5.40;;;3.50;;
3379;SDS011;1703;51.964;7.642;2023-07-24T03:28:54;5.60;;;4.60;;
3379;SDS011;1703;51.964;7.642;2023-07-24T03:31:20;6.00;;;4.23;;
3379;SDS011;1703;51.964;7.642;2023-07-24T03:33:47;5.50;;;4.17;;
3379;SDS011;1703;51.964;7.642;2023-07-24T03:36:14;4.57;;;3.73;;
3379;SDS011;1703;51.964;7.642;2023-07-24T03:38:41;10.67;;;4.63;;
3379;SDS011;1703;51.964;7.642;2023-07-24T03:41:07;8.80;;;3.80;;
3379;SDS011;1703;51.964;7.642;2023-07-24T03:43:36;5.73;;;3.50;;
3379;SDS011;1703;51.964;7.642;2023-07-24T03:46:03;8.80;;;4.10;;
3379;SDS011;1703;51.964;7.642;2023-07-24T03:48:30;5.77;;;4.57;;
3379;SDS011;1703;51.964;7.642;2023-07-24T03:50:59;7.30;;;4.70;;
3379;SDS011;1703;51.964;7.642;2023-07-24T03:53:27;5.43;;;4.13;;
3379;SDS011;1703;51.964;7.642;2023-07-24T03:55:54;8.77;;;5.00;;
3379;SDS011;1703;51.964;7.642;2023-07-24T03:58:21;6.53;;;4.17;;
3379;SDS011;1703;51.964;7.642;2023-07-24T04:00:49;5.40;;;4.40;;
3379;SDS011;1703;51.964;7.642;2023-07-24T04:03:16;9.93;;;5.37;;
3379;SDS011;1703;51.964;7.642;2023-07-24T04:05:43;14.77;;;6.10;;
3379;SDS011;1703;51.964;7.642;2023-07-24T04:08:09;6.23;;;4.00;;
3379;SDS011;1703;51.964;7.642;2023-07-24T04:10:36;11.47;;;5.37;;
3379;SDS011;1703;51.964;7.642;2023-07-24T04:13:03;6.70;;;5.03;;
3379;SDS011;1703;51.964;7.642;2023-07-24T04:15:30;6.13;;;5.40;;
3379;SDS011;1703;51.964;7.642;2023-07-24T04:17:58;6.53;;;5.00;;
3379;SDS011;1703;51.964;7.642;2023-07-24T04:20:24;7.93;;;5.90;;
3379;SDS011;1703;51.964;7.642;2023-07-24T04:22:51;9.80;;;5.20;;
3379;SDS011;1703;51.964;7.642;2023-07-24T04:25:18;7.10;;;5.17;;
3379;SDS011;1703;51.964;7.642;2023-07-24T04:27:45;9.53;;;5.40;;
3379;SDS011;1703;51.964;7.642;2023-07-24T04:30:12;10.33;;;5.03;;
3379;SDS011;1703;51.964;7.642;2023-07-24T04:32:39;10.23;;;5.03;;
3379;SDS011;1703;51.964;7.642;2023-07-24T04:35:07;8.80;;;4.80;;
3379;SDS011;1703;51.964;7.642;2023-07-24T04:37:34;6.93;;;4.70;;
3379;SDS011;1703;51.964;7.642;2023-07-24T04:40:01;6.37;;;5.80;;
3379;SDS011;1703;51.964;7.642;2023-07-24T04:42:28;13.70;;;5.83;;
3379;SDS011;1703;51.964;7.642;2023-07-24T04:44:55;11.07;;;6.30;;
3379;SDS011;1703;51.964;7.642;2023-07-24T04:47:21;9.97;;;6.23;;
3379;SDS011;1703;51.964;7.642;2023-07-24T04:49:48;9.20;;;5.37;;
3379;SDS011;1703;51.964;7.642;2023-07-24T04:52:16;15.07;;;6.43;;
3379;SDS011;1703;51.964;7.642;2023-07-24T04:54:43;8.00;;;5.23;;
3379;SDS011;1703;51.964;7.642;2023-07-24T04:57:10;8.73;;;7.03;;
3379;SDS011;1703;51.964;7.642;2023-07-24T04:59:37;6.60;;;5.27;;
3379;SDS011;1703;51.964;7.642;2023-07-24T05:02:04;9.40;;;5.77;;
3379;SDS011;1703;51.964;7.642;2023-07-24T05:04:31;9.43;;;5.97;;
3379;SDS011;1703;51.964;7.642;2023-07-24T05:06:57;6.10;;;5.00;;
3379;SDS011;1703;51.964;7.642;2023-07-24T05:09:25;8.50;;;5.60;;
3379;SDS011;1703;51.964;7.642;2023-07-24T05:11:52;11.17;;;7.20;;
3379;SDS011;1703;51.964;7.642;2023-07-24T05:14:19;11.67;;;6.20;;
3379;SDS011;1703;51.964;7.642;2023-07-24T05:16:46;9.23;;;6.23;;
3379;SDS011;1703;51.964;7.642;2023-07-24T05:19:12;8.90;;;5.97;;
3379;SDS011;1703;51.964;7.642;2023-07-24T05:21:39;11.47;;;6.73;;
3379;SDS011;1703;51.964;7.642;2023-07-24T05:24:06;10.40;;;6.20;;
3379;SDS011;1703;51.964;7.642;2023-07-24T05:26:34;10.43;;;5.43;;
3379;SDS011;1703;51.964;7.642;2023-07-24T05:29:01;7.97;;;5.73;;
3379;SDS011;1703;51.964;7.642;2023-07-24T05:31:27;13.20;;;7.20;;
3379;SDS011;1703;51.964;7.642;2023-07-24T05:33:54;6.03;;;5.50;;
3379;SDS011;1703;51.964;7.642;2023-07-24T05:36:21;10.00;;;6.23;;
3379;SDS011;1703;51.964;7.642;2023-07-24T05:38:48;6.57;;;5.30;;
3379;SDS011;1703;51.964;7.642;2023-07-24T05:41:14;14.60;;;6.70;;
3379;SDS011;1703;51.964;7.642;2023-07-24T05:43:42;9.93;;;5.30;;
3379;SDS011;1703;51.964;7.642;2023-07-24T05:46:09;5.97;;;5.27;;
3379;SDS011;1703;51.964;7.642;2023-07-24T05:48:36;5.83;;;4.67;;
3379;SDS011;1703;51.964;7.642;2023-07-24T05:51:03;7.43;;;5.37;;
3379;SDS011;1703;51.964;7.642;2023-07-24T05:53:29;6.03;;;5.43;;
3379;SDS011;1703;51.964;7.642;2023-07-24T05:55:57;13.83;;;5.97;;
3379;SDS011;1703;51.964;7.642;2023-07-24T05:58:25;6.23;;;5.27;;
3379;SDS011;1703;51.964;7.642;2023-07-24T06:00:53;7.37;;;5.80;;
3379;SDS011;1703;51.964;7.642;2023-07-24T06:03:20;7.47;;;6.67;;
3379;SDS011;1703;51.964;7.642;2023-07-24T06:05:50;6.60;;;5.90;;
3379;SDS011;1703;51.964;7.642;2023-07-24T06:08:19;7.93;;;5.90;;
3379;SDS011;1703;51.964;7.642;2023-07-24T06:10:46;11.00;;;5.70;;
3379;SDS011;1703;51.964;7.642;2023-07-24T06:13:14;9.67;;;6.30;;
3379;SDS011;1703;51.964;7.642;2023-07-24T06:15:41;7.93;;;5.70;;
3379;SDS011;1703;51.964;7.642;2023-07-24T06:18:09;6.87;;;6.20;;
3379;SDS011;1703;51.964;7.642;2023-07-24T06:20:36;10.80;;;7.50;;
3379;SDS011;1703;51.964;7.642;2023-07-24T06:23:03;9.03;;;6.80;;
3379;SDS011;1703;51.964;7.642;2023-07-24T06:25:30;10.30;;;6.77;;
3379;SDS011;1703;51.964;7.642;2023-07-24T06:27:57;8.30;;;7.37;;
3379;SDS011;1703;51.964;7.642;2023-07-24T06:30:24;7.43;;;6.63;;
3379;SDS011;1703;51.964;7.642;2023-07-24T06:32:51;7.90;;;7.10;;
3379;SDS011;1703;51.964;7.642;2023-07-24T06:35:19;8.33;;;7.50;;
3379;SDS011;1703;51.964;7.642;2023-07-24T06:37:46;13.27;;;9.50;;
3379;SDS011;1703;51.964;7.642;2023-07-24T06:40:13;9.80;;;8.60;;
3379;SDS011;1703;51.964;7.642;2023-07-24T06:42:40;13.43;;;9.80;;
3379;SDS011;1703;51.964;7.642;2023-07-24T06:45:07;10.87;;;9.17;;
3379;SDS011;1703;51.964;7.642;2023-07-24T06:47:34;10.60;;;8.30;;
3379;SDS011;1703;51.964;7.642;2023-07-24T06:50:01;11.60;;;10.40;;
3379;SDS011;1703;51.964;7.642;2023-07-24T06:52:31;11.00;;;9.47;;
3379;SDS011;1703;51.964;7.642;2023-07-24T06:54:57;10.70;;;8.40;;
3379;SDS011;1703;51.964;7.642;2023-07-24T06:57:24;10.83;;;9.73;;
3379;SDS011;1703;51.964;7.642;2023-07-24T06:59:51;11.37;;;9.50;;
3379;SDS011;1703;51.964;7.642;2023-07-24T07:02:18;12.23;;;9.20;;
3379;SDS011;1703;51.964;7.642;2023-07-24T07:04:45;12.30;;;9.10;;
3379;SDS011;1703;51.964;7.642;2023-07-24T07:07:11;11.03;;;10.00;;
3379;SDS011;1703;51.964;7.642;2023-07-24T07:09:39;9.73;;;8.80;;
3379;SDS011;1703;51.964;7.642;2023-07-24T07:12:07;10.27;;;8.47;;
3379;SDS011;1703;51.964;7.642;2023-07-24T07:14:34;10.17;;;9.17;;
3379;SDS011;1703;51.964;7.642;2023-07-24T07:17:00;9.93;;;8.93;;
3379;SDS011;1703;51.964;7.642;2023-07-24T07:19:27;11.27;;;10.10;;
3379;SDS011;1703;51.964;7.642;2023-07-24T07:21:54;10.23;;;9.13;;
3379;SDS011;1703;51.964;7.642;2023-07-24T07:24:21;13.50;;;9.13;;
3379;SDS011;1703;51.964;7.642;2023-07-24T07:26:49;10.67;;;9.67;;
3379;SDS011;1703;51.964;7.642;2023-07-24T07:29:16;9.80;;;8.70;;
3379;SDS011;1703;51.964;7.642;2023-07-24T07:31:42;11.30;;;9.70;;
3379;SDS011;1703;51.964;7.642;2023-07-24T07:34:09;11.70;;;9.83;;
3379;SDS011;1703;51.964;7.642;2023-07-24T07:36:36;13.90;;;9.00;;
3379;SDS011;1703;51.964;7.642;2023-07-24T07:39:03;9.60;;;8.70;;
3379;SDS011;1703;51.964;7.642;2023-07-24T07:41:29;10.83;;;9.80;;
3379;SDS011;1703;51.964;7.642;2023-07-24T07:43:58;10.93;;;9.80;;
3379;SDS011;1703;51.964;7.642;2023-07-24T07:46:25;10.53;;;9.63;;
3379;SDS011;1703;51.964;7.642;2023-07-24T07:48:51;10.80;;;9.37;;
3379;SDS011;1703;51.964;7.642;2023-07-24T07:51:18;12.30;;;10.90;;
3379;SDS011;1703;51.964;7.642;2023-07-24T07:53:45;10.90;;;9.90;;
3379;SDS011;1703;51.964;7.642;2023-07-24T07:56:12;11.10;;;9.97;;
3379;SDS011;1703;51.964;7.642;2023-07-24T07:58:38;14.00;;;11.17;;
3379;SDS011;1703;51.964;7.642;2023-07-24T08:01:07;11.37;;;10.37;;
3379;SDS011;1703;51.964;7.642;2023-07-24T08:03:34;10.60;;;9.67;;
3379;SDS011;1703;51.964;7.642;2023-07-24T08:06:00;13.67;;;10.00;;
3379;SDS011;1703;51.964;7.642;2023-07-24T08:08:27;9.87;;;8.87;;
3379;SDS011;1703;51.964;7.642;2023-07-24T08:10:54;7.47;;;6.87;;
3379;SDS011;1703;51.964;7.642;2023-07-24T08:13:21;7.23;;;4.70;;
3379;SDS011;1703;51.964;7.642;2023-07-24T08:15:48;4.23;;;3.20;;
3379;SDS011;1703;51.964;7.642;2023-07-24T08:18:17;2.73;;;2.53;;
3379;SDS011;1703;51.964;7.642;2023-07-24T08:20:43;3.07;;;2.67;;
3379;SDS011;1703;51.964;7.642;2023-07-24T08:23:10;4.07;;;3.10;;
3379;SDS011;1703;51.964;7.642;2023-07-24T08:25:37;2.17;;;2.07;;
3379;SDS011;1703;51.964;7.642;2023-07-24T08:28:04;2.60;;;2.40;;
3379;SDS011;1703;51.964;7.642;2023-07-24T08:30:30;6.53;;;3.20;;
3379;SDS011;1703;51.964;7.642;2023-07-24T08:32:57;2.93;;;2.73;;
3379;SDS011;1703;51.964;7.642;2023-07-24T08:35:26;2.90;;;2.70;;
3379;SDS011;1703;51.964;7.642;2023-07-24T08:37:53;3.57;;;3.37;;
3379;SDS011;1703;51.964;7.642;2023-07-24T08:40:19;4.23;;;3.83;;
3379;SDS011;1703;51.964;7.642;2023-07-24T08:42:46;4.63;;;3.93;;
3379;SDS011;1703;51.964;7.642;2023-07-24T08:45:15;3.60;;;3.30;;
3379;SDS011;1703;51.964;7.642;2023-07-24T08:47:43;3.10;;;2.90;;
3379;SDS011;1703;51.964;7.642;2023-07-24T08:50:10;5.60;;;3.20;;
3379;SDS011;1703;51.964;7.642;2023-07-24T08:52:39;4.63;;;3.67;;
3379;SDS011;1703;51.964;7.642;2023-07-24T08:55:07;3.77;;;3.40;;
3379;SDS011;1703;51.964;7.642;2023-07-24T08:57:36;3.37;;;3.17;;
3379;SDS011;1703;51.964;7.642;2023-07-24T09:00:03;4.10;;;3.73;;
3379;SDS011;1703;51.964;7.642;2023-07-24T09:02:31;3.73;;;3.43;;
3379;SDS011;1703;51.964;7.642;2023-07-24T09:04:58;2.93;;;2.73;;
3379;SDS011;1703;51.964;7.642;2023-07-24T09:07:25;3.33;;;3.03;;
3379;SDS011;1703;51.964;7.642;2023-07-24T09:09:53;3.87;;;2.93;;
3379;SDS011;1703;51.964;7.642;2023-07-24T09:12:21;3.20;;;2.97;;
3379;SDS011;1703;51.964;7.642;2023-07-24T09:14:59;3.30;;;2.67;;
3379;SDS011;1703;51.964;7.642;2023-07-24T09:17:26;3.00;;;2.80;;
3379;SDS011;1703;51.964;7.642;2023-07-24T09:19:55;2.50;;;2.30;;
3379;SDS011;1703;51.964;7.642;2023-07-24T09:22:22;2.90;;;2.60;;
3379;SDS011;1703;51.964;7.642;2023-07-24T09:24:52;2.93;;;2.73;;
3379;SDS011;1703;51.964;7.642;2023-07-24T09:27:20;1.97;;;1.87;;
3379;SDS011;1703;51.964;7.642;2023-07-24T09:29:51;2.23;;;2.03;;
3379;SDS011;1703;51.964;7.642;2023-07-24T09:32:18;2.23;;;2.10;;
3379;SDS011;1703;51.964;7.642;2023-07-24T09:34:46;3.53;;;2.37;;
3379;SDS011;1703;51.964;7.642;2023-07-24T09:37:22;2.33;;;2.13;;
3379;SDS011;1703;51.964;7.642;2023-07-24T09:39:50;2.30;;;2.10;;
3379;SDS011;1703;51.964;7.642;2023-07-24T09:42:18;2.10;;;1.90;;
3379;SDS011;1703;51.964;7.642;2023-07-24T09:44:53;2.20;;;2.03;;
3379;SDS011;1703;51.964;7.642;2023-07-24T09:47:19;2.57;;;2.37;;
3379;SDS011;1703;51.964;7.642;2023-07-24T09:49:46;2.30;;;2.17;;
3379;SDS011;1703;51.964;7.642;2023-07-24T09:52:14;3.03;;;2.27;;
3379;SDS011;1703;51.964;7.642;2023-07-24T09:54:45;3.13;;;2.90;;
3379;SDS011;1703;51.964;7.642;2023-07-24T09:57:21;3.27;;;2.73;;
3379;SDS011;1703;51.964;7.642;2023-07-24T09:59:49;2.67;;;2.50;;
3379;SDS011;1703;51.964;7.642;2023-07-24T10:02:17;3.20;;;2.87;;
3379;SDS011;1703;51.964;7.642;2023-07-24T10:04:45;3.87;;;3.57;;
3379;SDS011;1703;51.964;7.642;2023-07-24T10:07:13;3.43;;;3.23;;
3379;SDS011;1703;51.964;7.642;2023-07-24T10:09:41;5.00;;;3.03;;
3379;SDS011;1703;51.964;7.642;2023-07-24T10:12:10;2.80;;;2.37;;
3379;SDS011;1703;51.964;7.642;2023-07-24T10:14:38;4.23;;;2.63;;
3379;SDS011;1703;51.964;7.642;2023-07-24T10:17:05;3.37;;;3.10;;
3379;SDS011;1703;51.964;7.642;2023-07-24T10:19:35;3.97;;;3.37;;
3379;SDS011;1703;51.964;7.642;2023-07-24T10:22:03;4.20;;;3.80;;
3379;SDS011;1703;51.964;7.642;2023-07-24T10:24:30;3.10;;;2.80;;
3379;SDS011;1703;51.964;7.642;2023-07-24T10:26:58;4.30;;;3.60;;
3379;SDS011;1703;51.964;7.642;2023-07-24T10:29:25;5.70;;;3.40;;
3379;SDS011;1703;51.964;7.642;2023-07-24T10:31:54;4.90;;;3.33;;
3379;SDS011;1703;51.964;7.642;2023-07-24T10:34:21;3.13;;;2.57;;
3379;SDS011;1703;51.964;7.642;2023-07-24T10:36:48;3.40;;;3.00;;
3379;SDS011;1703;51.964;7.642;2023-07-24T10:39:15;3.80;;;3.50;;
3379;SDS011;1703;51.964;7.642;2023-07-24T10:41:43;4.57;;;3.77;;
3379;SDS011;1703;51.964;7.642;2023-07-24T10:44:11;4.27;;;3.70;;
3379;SDS011;1703;51.964;7.642;2023-07-24T10:46:38;3.23;;;2.93;;
3379;SDS011;1703;51.964;7.642;2023-07-24T10:49:08;3.40;;;3.10;;
3379;SDS011;1703;51.964;7.642;2023-07-24T10:51:35;9.80;;;4.60;;
3379;SDS011;1703;51.964;7.642;2023-07-24T10:54:03;5.97;;;3.60;;
3379;SDS011;1703;51.964;7.642;2023-07-24T10:56:31;3.80;;;3.50;;
3379;SDS011;1703;51.964;7.642;2023-07-24T10:59:02;4.10;;;3.60;;
3379;SDS011;1703;51.964;7.642;2023-07-24T11:01:30;3.63;;;3.33;;
3379;SDS011;1703;51.964;7.642;2023-07-24T11:03:58;8.03;;;3.70;;
3379;SDS011;1703;51.964;7.642;2023-07-24T11:06:27;3.10;;;2.90;;
3379;SDS011;1703;51.964;7.642;2023-07-24T11:08:54;3.70;;;3.10;;
3379;SDS011;1703;51.964;7.642;2023-07-24T11:11:27;5.40;;;4.87;;
3379;SDS011;1703;51.964;7.642;2023-07-24T11:13:55;3.40;;;3.10;;
3379;SDS011;1703;51.964;7.642;2023-07-24T11:16:22;3.20;;;2.90;;
3379;SDS011;1703;51.964;7.642;2023-07-24T11:18:50;4.20;;;3.80;;
3379;SDS011;1703;51.964;7.642;2023-07-24T11:21:18;4.10;;;3.00;;
3379;SDS011;1703;51.964;7.642;2023-07-24T11:23:47;3.33;;;3.00;;
3379;SDS011;1703;51.964;7.642;2023-07-24T11:26:14;3.93;;;3.63;;
3379;SDS011;1703;51.964;7.642;2023-07-24T11:28:41;3.67;;;3.33;;
3379;SDS011;1703;51.964;7.642;2023-07-24T11:31:08;5.83;;;3.50;;
3379;SDS011;1703;51.964;7.642;2023-07-24T11:33:36;2.80;;;2.60;;
3379;SDS011;1703;51.964;7.642;2023-07-24T11:36:04;3.53;;;2.53;;
3379;SDS011;1703;51.964;7.642;2023-07-24T11:38:31;2.73;;;2.33;;
3379;SDS011;1703;51.964;7.642;2023-07-24T11:40:59;4.20;;;2.60;;
3379;SDS011;1703;51.964;7.642;2023-07-24T11:43:26;5.00;;;3.00;;
3379;SDS011;1703;51.964;7.642;2023-07-24T11:45:53;6.37;;;2.93;;
3379;SDS011;1703;51.964;7.642;2023-07-24T11:48:20;3.17;;;2.87;;
3379;SDS011;1703;51.964;7.642;2023-07-24T11:50:50;8.93;;;2.37;;
3379;SDS011;1703;51.964;7.642;2023-07-24T11:53:21;2.60;;;2.40;;
3379;SDS011;1703;51.964;7.642;2023-07-24T11:55:49;2.63;;;2.43;;
3379;SDS011;1703;51.964;7.642;2023-07-24T11:58:18;2.90;;;2.63;;
3379;SDS011;1703;51.964;7.642;2023-07-24T12:00:46;3.30;;;2.33;;
3379;SDS011;1703;51.964;7.642;2023-07-24T12:03:14;2.03;;;1.87;;
3379;SDS011;1703;51.964;7.642;2023-07-24T12:05:45;3.30;;;3.07;;
3379;SDS011;1703;51.964;7.642;2023-07-24T12:08:11;2.90;;;2.70;;
3379;SDS011;1703;51.964;7.642;2023-07-24T12:10:40;2.90;;;2.70;;
3379;SDS011;1703;51.964;7.642;2023-07-24T12:13:07;3.13;;;2.70;;
3379;SDS011;1703;51.964;7.642;2023-07-24T12:15:35;3.63;;;3.33;;
3379;SDS011;1703;51.964;7.642;2023-07-24T12:18:03;5.03;;;3.80;;
3379;SDS011;1703;51.964;7.642;2023-07-24T12:20:30;6.77;;;4.77;;
3379;SDS011;1703;51.964;7.642;2023-07-24T12:22:58;4.37;;;3.97;;
3379;SDS011;1703;51.964;7.642;2023-07-24T12:25:25;4.20;;;3.90;;
3379;SDS011;1703;51.964;7.642;2023-07-24T12:27:52;3.80;;;3.50;;
3379;SDS011;1703;51.964;7.642;2023-07-24T12:30:19;4.10;;;3.80;;
3379;SDS011;1703;51.964;7.642;2023-07-24T12:32:47;4.80;;;4.40;;
3379;SDS011;1703;51.964;7.642;2023-07-24T12:35:14;3.30;;;3.10;;
3379;SDS011;1703;51.964;7.642;2023-07-24T12:37:42;3.80;;;3.37;;
3379;SDS011;1703;51.964;7.642;2023-07-24T12:40:09;3.33;;;3.13;;
3379;SDS011;1703;51.964;7.642;2023-07-24T12:42:36;12.77;;;4.40;;
3379;SDS011;1703;51.964;7.642;2023-07-24T12:45:03;4.03;;;3.70;;
3379;SDS011;1703;51.964;7.642;2023-07-24T12:47:31;4.73;;;4.33;;
3379;SDS011;1703;51.964;7.642;2023-07-24T12:50:00;5.17;;;4.77;;
3379;SDS011;1703;51.964;7.642;2023-07-24T12:52:28;5.50;;;5.00;;
3379;SDS011;1703;51.964;7.642;2023-07-24T12:54:56;6.03;;;5.43;;
3379;SDS011;1703;51.964;7.642;2023-07-24T12:57:22;9.33;;;5.03;;
3379;SDS011;1703;51.964;7.642;2023-07-24T12:59:51;9.57;;;6.07;;
3379;SDS011;1703;51.964;7.642;2023-07-24T13:02:18;6.30;;;5.63;;
3379;SDS011;1703;51.964;7.642;2023-07-24T13:04:45;5.33;;;4.93;;
3379;SDS011;1703;51.964;7.642;2023-07-24T13:07:13;4.80;;;4.40;;
3379;SDS011;1703;51.964;7.642;2023-07-24T13:09:39;3.60;;;3.30;;
3379;SDS011;1703;51.964;7.642;2023-07-24T13:12:07;2.83;;;2.63;;
3379;SDS011;1703;51.964;7.642;2023-07-24T13:14:34;4.60;;;2.73;;
3379;SDS011;1703;51.964;7.642;2023-07-24T13:17:01;2.63;;;2.43;;
3379;SDS011;1703;51.964;7.642;2023-07-24T13:19:28;3.07;;;2.57;;
3379;SDS011;1703;51.964;7.642;2023-07-24T13:21:55;2.77;;;2.23;;
3379;SDS011;1703;51.964;7.642;2023-07-24T13:24:23;3.33;;;2.90;;
3379;SDS011;1703;51.964;7.642;2023-07-24T13:26:50;3.67;;;3.37;;
3379;SDS011;1703;51.964;7.642;2023-07-24T13:29:17;4.83;;;2.60;;
3379;SDS011;1703;51.964;7.642;2023-07-24T13:31:43;4.23;;;2.60;;
3379;SDS011;1703;51.964;7.642;2023-07-24T13:34:10;6.43;;;5.23;;
3379;SDS011;1703;51.964;7.642;2023-07-24T13:36:37;3.20;;;3.00;;
3379;SDS011;1703;51.964;7.642;2023-07-24T13:39:04;3.20;;;2.43;;
3379;SDS011;1703;51.964;7.642;2023-07-24T13:41:32;3.37;;;3.03;;
3379;SDS011;1703;51.964;7.642;2023-07-24T13:44:01;3.17;;;2.90;;
3379;SDS011;1703;51.964;7.642;2023-07-24T13:46:27;2.53;;;2.33;;
3379;SDS011;1703;51.964;7.642;2023-07-24T13:48:54;2.43;;;2.33;;
3379;SDS011;1703;51.964;7.642;2023-07-24T13:51:21;3.10;;;2.90;;
3379;SDS011;1703;51.964;7.642;2023-07-24T13:53:48;3.10;;;2.90;;
3379;SDS011;1703;51.964;7.642;2023-07-24T13:56:16;3.17;;;2.87;;
3379;SDS011;1703;51.964;7.642;2023-07-24T13:58:45;3.83;;;3.60;;
3379;SDS011;1703;51.964;7.642;2023-07-24T14:01:12;3.40;;;3.03;;
3379;SDS011;1703;51.964;7.642;2023-07-24T14:03:39;3.37;;;3.00;;
3379;SDS011;1703;51.964;7.642;2023-07-24T14:06:06;3.83;;;3.27;;
3379;SDS011;1703;51.964;7.642;2023-07-24T14:08:32;3.77;;;3.47;;
3379;SDS011;1703;51.964;7.642;2023-07-24T14:10:59;3.70;;;3.40;;
3379;SDS011;1703;51.964;7.642;2023-07-24T14:13:27;5.07;;;4.60;;
3379;SDS011;1703;51.964;7.642;2023-07-24T14:15:55;6.70;;;4.97;;
3379;SDS011;1703;51.964;7.642;2023-07-24T14:18:22;4.23;;;3.93;;
3379;SDS011;1703;51.964;7.642;2023-07-24T14:20:49;4.30;;;4.03;;
3379;SDS011;1703;51.964;7.642;2023-07-24T14:23:19;4.90;;;4.40;;
3379;SDS011;1703;51.964;7.642;2023-07-24T14:25:46;5.13;;;4.63;;
3379;SDS011;1703;51.964;7.642;2023-07-24T14:28:13;5.50;;;4.30;;
3379;SDS011;1703;51.964;7.642;2023-07-24T14:30:39;5.80;;;4.83;;
3379;SDS011;1703;51.964;7.642;2023-07-24T14:33:09;4.93;;;4.53;;
3379;SDS011;1703;51.964;7.642;2023-07-24T14:35:36;5.10;;;4.70;;
3379;SDS011;1703;51.964;7.642;2023-07-24T14:38:02;10.37;;;5.70;;
3379;SDS011;1703;51.964;7.642;2023-07-24T14:40:29;5.80;;;5.13;;
3379;SDS011;1703;51.964;7.642;2023-07-24T14:42:56;5.33;;;4.83;;
3379;SDS011;1703;51.964;7.642;2023-07-24T14:45:23;7.57;;;5.63;;
3379;SDS011;1703;51.964;7.642;2023-07-24T14:47:50;5.50;;;5.00;;
3379;SDS011;1703;51.964;7.642;2023-07-24T14:50:18;5.53;;;4.70;;
3379;SDS011;1703;51.964;7.642;2023-07-24T14:52:45;5.03;;;4.63;;
3379;SDS011;1703;51.964;7.642;2023-07-24T14:55:11;6.53;;;4.77;;
3379;SDS011;1703;51.964;7.642;2023-07-24T14:57:38;5.27;;;4.87;;
3379;SDS011;1703;51.964;7.642;2023-07-24T15:00:06;4.70;;;4.27;;
3379;SDS011;1703;51.964;7.642;2023-07-24T15:02:33;4.73;;;3.50;;
3379;SDS011;1703;51.964;7.642;2023-07-24T15:05:00;4.53;;;4.13;;
3379;SDS011;1703;51.964;7.642;2023-07-24T15:07:28;3.60;;;3.33;;
3379;SDS011;1703;51.964;7.642;2023-07-24T15:09:55;3.23;;;3.03;;
3379;SDS011;1703;51.964;7.642;2023-07-24T15:12:22;5.10;;;3.73;;
3379;SDS011;1703;51.964;7.642;2023-07-24T15:14:49;3.63;;;3.33;;
3379;SDS011;1703;51.964;7.642;2023-07-24T15:17:16;4.80;;;3.23;;